createdAt,value
2022-08-21T00:00:24.880Z,96160.84
2022-08-21T00:02:58.897Z,96157.47
2022-08-21T00:05:27.184Z,96155.50
2022-08-21T00:07:55.124Z,96157.69
2022-08-21T00:10:22.578Z,96145.78
2022-08-21T00:12:50.467Z,96154.19
2022-08-21T00:15:21.512Z,96141.19
2022-08-21T00:17:49.572Z,96146.75
2022-08-21T00:20:17.609Z,96146.59
2022-08-21T00:22:45.323Z,96144.38
2022-08-21T00:25:14.032Z,96149.56
2022-08-21T00:27:43.384Z,96142.34
2022-08-21T00:30:11.577Z,96141.97
2022-08-21T00:32:51.113Z,96134.84
2022-08-21T00:35:22.388Z,96131.56
2022-08-21T00:37:50.094Z,96141.56
2022-08-21T00:40:21.031Z,96139.47
2022-08-21T00:42:48.724Z,96135.25
2022-08-21T00:45:23.513Z,96131.88
2022-08-21T00:47:52.289Z,96125.22
2022-08-21T00:50:21.907Z,96124.81
2022-08-21T00:52:52.812Z,96120.81
2022-08-21T00:55:23.443Z,96131.16
2022-08-21T00:57:55.044Z,96125.00
2022-08-21T01:00:29.446Z,96128.75
2022-08-21T01:02:58.634Z,96127.50
2022-08-21T01:05:26.357Z,96124.38
2022-08-21T01:07:54.724Z,96125.03
2022-08-21T01:10:24.450Z,96128.75
2022-08-21T01:12:56.153Z,96129.28
2022-08-21T01:15:28.055Z,96129.78
2022-08-21T01:17:55.529Z,96129.94
2022-08-21T01:20:23.081Z,96128.31
2022-08-21T01:23:04.825Z,96122.25
2022-08-21T01:25:33.551Z,96127.38
2022-08-21T01:28:07.586Z,96120.91
2022-08-21T01:30:37.601Z,96122.59
2022-08-21T01:33:04.721Z,96120.69
2022-08-21T01:35:31.853Z,96119.81
2022-08-21T01:37:58.949Z,96119.69
2022-08-21T01:40:26.277Z,96116.16
2022-08-21T01:42:54.294Z,96113.50
2022-08-21T01:45:21.520Z,96117.41
2022-08-21T01:47:48.673Z,96110.13
2022-08-21T01:50:19.571Z,96118.13
2022-08-21T01:52:47.575Z,96106.75
2022-08-21T01:55:16.026Z,96108.03
2022-08-21T01:57:43.673Z,96106.84
2022-08-21T02:00:14.298Z,96111.31
2022-08-21T02:02:42.100Z,96112.44
2022-08-21T02:05:12.295Z,96111.50
2022-08-21T02:07:46.161Z,96114.28
2022-08-21T02:10:16.568Z,96111.38
2022-08-21T02:12:43.750Z,96109.50
2022-08-21T02:15:10.880Z,96104.88
2022-08-21T02:17:50.848Z,96100.16
2022-08-21T02:20:33.187Z,96099.66
2022-08-21T02:23:01.226Z,96104.25
2022-08-21T02:25:30.088Z,96103.19
2022-08-21T02:27:58.542Z,96096.91
2022-08-21T02:30:29.311Z,96094.88
2022-08-21T02:32:57.425Z,96096.56
2022-08-21T02:35:25.441Z,96095.53
2022-08-21T02:37:59.546Z,96088.31
2022-08-21T02:40:33.065Z,96081.91
2022-08-21T02:43:01.111Z,96087.41
2022-08-21T02:45:29.714Z,96085.31
2022-08-21T02:48:00.341Z,96081.25
2022-08-21T02:50:30.930Z,96079.16
2022-08-21T02:52:58.499Z,96077.34
2022-08-21T02:55:28.232Z,96079.69
2022-08-21T02:57:56.935Z,96072.94
2022-08-21T03:00:26.200Z,96070.09
2022-08-21T03:02:54.420Z,96076.47
2022-08-21T03:05:21.670Z,96082.53
2022-08-21T03:07:49.383Z,96073.91
2022-08-21T03:10:17.024Z,96071.25
2022-08-21T03:12:44.320Z,96065.13
2022-08-21T03:15:16.216Z,96066.56
2022-08-21T03:17:43.654Z,96067.19
2022-08-21T03:20:11.475Z,96073.84
2022-08-21T03:22:38.640Z,96070.03
2022-08-21T03:25:06.755Z,96069.63
2022-08-21T03:27:34.995Z,96068.28
2022-08-21T03:30:04.504Z,96067.78
2022-08-21T03:32:32.526Z,96069.69
2022-08-21T03:35:01.177Z,96073.19
2022-08-21T03:37:28.970Z,96070.97
2022-08-21T03:39:56.318Z,96074.13
2022-08-21T03:42:24.172Z,96069.81
2022-08-21T03:44:52.275Z,96075.78
2022-08-21T03:47:19.503Z,96076.72
2022-08-21T03:49:46.672Z,96064.72
2022-08-21T03:52:13.852Z,96071.41
2022-08-21T03:54:42.672Z,96073.97
2022-08-21T03:57:11.060Z,96071.41
2022-08-21T03:59:39.979Z,96080.75
2022-08-21T04:02:08.204Z,96083.94
2022-08-21T04:04:35.381Z,96078.28
2022-08-21T04:07:03.436Z,96078.19
2022-08-21T04:09:31.149Z,96081.13
2022-08-21T04:11:59.827Z,96086.97
2022-08-21T04:14:27.386Z,96085.13
2022-08-21T04:16:54.515Z,96083.97
2022-08-21T04:19:21.699Z,96089.56
2022-08-21T04:21:50.529Z,96090.84
2022-08-21T04:24:20.303Z,96097.00
2022-08-21T04:26:48.064Z,96094.78
2022-08-21T04:29:15.211Z,96097.09
2022-08-21T04:31:44.527Z,96100.28
2022-08-21T04:34:11.694Z,96103.84
2022-08-21T04:36:39.080Z,96107.84
2022-08-21T04:39:06.353Z,96106.19
2022-08-21T04:41:37.385Z,96106.16
2022-08-21T04:44:05.301Z,96109.34
2022-08-21T04:46:32.462Z,96112.91
2022-08-21T04:48:59.912Z,96106.06
2022-08-21T04:51:32.986Z,96112.31
2022-08-21T04:54:03.292Z,96111.56
2022-08-21T04:56:36.766Z,96115.09
2022-08-21T04:59:12.145Z,96108.94
2022-08-21T05:01:40.752Z,96096.44
2022-08-21T05:04:11.442Z,96116.25
2022-08-21T05:06:41.949Z,96104.31
2022-08-21T05:09:13.599Z,96122.16
2022-08-21T05:11:41.840Z,96112.66
2022-08-21T05:14:09.501Z,96116.56
2022-08-21T05:16:37.821Z,96119.56
2022-08-21T05:19:09.308Z,96122.69
2022-08-21T05:21:38.406Z,96124.31
2022-08-21T05:24:05.522Z,96121.44
2022-08-21T05:26:32.992Z,96128.78
2022-08-21T05:29:00.177Z,96125.13
2022-08-21T05:31:27.382Z,96116.03
2022-08-21T05:33:55.986Z,96121.50
2022-08-21T05:36:23.300Z,96119.84
2022-08-21T05:38:50.607Z,96125.84
2022-08-21T05:41:18.118Z,96118.00
2022-08-21T05:43:45.199Z,96125.03
2022-08-21T05:46:12.392Z,96122.47
2022-08-21T05:48:39.925Z,96114.53
2022-08-21T05:51:10.546Z,96115.41
2022-08-21T05:53:37.960Z,96126.91
2022-08-21T05:56:06.051Z,96123.88
2022-08-21T05:58:34.075Z,96113.94
2022-08-21T06:01:03.112Z,96106.75
2022-08-21T06:03:33.390Z,96116.16
2022-08-21T06:06:01.013Z,96109.38
2022-08-21T06:08:28.637Z,96115.34
2022-08-21T06:10:58.397Z,96113.22
2022-08-21T06:13:26.307Z,96109.78
2022-08-21T06:16:23.459Z,96109.78
2022-08-21T06:18:50.577Z,96105.44
2022-08-21T06:21:18.116Z,96112.78
2022-08-21T06:23:45.765Z,96107.13
2022-08-21T06:26:14.595Z,96117.25
2022-08-21T06:28:42.661Z,96112.03
2022-08-21T06:31:18.367Z,96118.16
2022-08-21T06:33:46.245Z,96119.91
2022-08-21T06:36:13.429Z,96115.81
2022-08-21T06:38:41.004Z,96114.19
2022-08-21T06:41:08.935Z,96109.31
2022-08-21T06:43:39.930Z,96114.72
2022-08-21T06:46:08.618Z,96111.22
2022-08-21T06:48:35.801Z,96115.75
2022-08-21T06:51:03.728Z,96118.38
2022-08-21T06:53:30.895Z,96112.63
2022-08-21T06:55:58.041Z,96118.19
2022-08-21T06:58:25.177Z,96113.16
2022-08-21T07:00:52.409Z,96112.63
2022-08-21T07:03:21.029Z,96109.69
2022-08-21T07:05:48.301Z,96100.19
2022-08-21T07:08:15.417Z,96105.84
2022-08-21T07:10:42.609Z,96110.25
2022-08-21T07:13:09.884Z,96103.81
2022-08-21T07:15:37.067Z,96101.09
2022-08-21T07:18:04.670Z,96106.66
2022-08-21T07:20:32.635Z,96096.09
2022-08-21T07:23:04.447Z,96093.72
2022-08-21T07:25:32.259Z,96096.63
2022-08-21T07:27:59.526Z,96103.00
2022-08-21T07:30:27.138Z,96092.53
2022-08-21T07:32:54.500Z,96093.34
2022-08-21T07:35:22.601Z,96099.38
2022-08-21T07:37:50.665Z,96095.28
2022-08-21T07:40:19.105Z,96098.84
2022-08-21T07:42:50.854Z,96095.50
2022-08-21T07:45:21.405Z,96091.59
2022-08-21T07:47:51.923Z,96093.06
2022-08-21T07:50:21.339Z,96094.28
2022-08-21T07:52:48.876Z,96089.84
2022-08-21T07:55:20.565Z,96093.41
2022-08-21T07:57:48.336Z,96093.72
2022-08-21T08:00:18.028Z,96100.72
2022-08-21T08:02:50.319Z,96104.88
2022-08-21T08:05:19.989Z,96103.06
2022-08-21T08:07:47.118Z,96104.38
2022-08-21T08:10:14.613Z,96108.78
2022-08-21T08:12:44.067Z,96109.84
2022-08-21T08:15:17.053Z,96111.31
2022-08-21T08:17:44.561Z,96109.41
2022-08-21T08:20:13.845Z,96105.59
2022-08-21T08:22:42.195Z,96113.34
2022-08-21T08:25:10.838Z,96115.63
2022-08-21T08:27:38.745Z,96109.00
2022-08-21T08:30:08.933Z,96110.00
2022-08-21T08:32:36.252Z,96106.38
2022-08-21T08:35:05.109Z,96108.34
2022-08-21T08:37:34.658Z,96109.00
2022-08-21T08:40:03.568Z,96111.16
2022-08-21T08:42:35.646Z,96096.78
2022-08-21T08:45:16.864Z,96100.59
2022-08-21T08:47:48.286Z,96092.69
2022-08-21T08:50:22.802Z,96095.13
2022-08-21T08:52:59.109Z,96102.75
2022-08-21T08:55:34.998Z,96086.47
2022-08-21T08:58:03.635Z,96097.69
2022-08-21T09:00:31.926Z,96096.03
2022-08-21T09:03:01.349Z,96101.47
2022-08-21T09:05:30.743Z,96102.50
2022-08-21T09:08:31.972Z,96106.16
2022-08-21T09:11:10.095Z,96098.09
2022-08-21T09:13:52.527Z,96097.16
2022-08-21T09:16:32.985Z,96102.97
2022-08-21T09:19:02.870Z,96102.59
2022-08-21T09:21:54.078Z,96101.53
2022-08-21T09:24:47.877Z,96095.69
2022-08-21T09:27:20.459Z,96087.94
2022-08-21T09:29:55.499Z,96083.03
2022-08-21T09:32:37.323Z,96086.47
2022-08-21T09:35:20.887Z,96087.50
2022-08-21T09:38:03.733Z,96082.38
2022-08-21T09:40:33.243Z,96084.94
2022-08-21T09:43:05.202Z,96080.19
2022-08-21T09:45:34.179Z,96079.91
2022-08-21T09:48:18.562Z,96078.91
2022-08-21T09:50:48.410Z,96075.56
2022-08-21T09:53:17.237Z,96085.13
2022-08-21T09:56:16.133Z,96082.94
2022-08-21T09:58:46.829Z,96079.56
2022-08-21T10:01:21.933Z,96077.41
2022-08-21T10:04:02.222Z,96066.84
2022-08-21T10:06:29.856Z,96066.81
2022-08-21T10:09:08.262Z,96073.94
2022-08-21T10:11:36.085Z,96069.31
2022-08-21T10:14:12.326Z,96057.81
2022-08-21T10:16:42.059Z,96050.06
2022-08-21T10:19:16.621Z,96061.22
2022-08-21T10:22:02.048Z,96059.63
2022-08-21T10:24:30.777Z,96055.63
2022-08-21T10:27:17.360Z,96049.91
2022-08-21T10:30:00.654Z,96047.25
2022-08-21T10:32:52.648Z,96048.16
2022-08-21T10:35:32.909Z,96046.00
2022-08-21T10:38:23.536Z,96042.75
2022-08-21T10:41:02.127Z,96040.13
2022-08-21T10:43:41.241Z,96041.34
2022-08-21T10:46:16.859Z,96036.03
2022-08-21T10:48:51.382Z,96045.66
2022-08-21T10:51:36.637Z,96029.53
2022-08-21T10:54:39.001Z,96045.69
2022-08-21T10:57:26.097Z,96037.78
2022-08-21T11:00:11.939Z,96039.31
2022-08-21T11:02:57.946Z,96036.56
2022-08-21T11:05:34.861Z,96042.00
2022-08-21T11:08:11.319Z,96027.88
2022-08-21T11:10:51.356Z,96029.69
2022-08-21T11:13:45.709Z,96030.53
2022-08-21T11:16:26.942Z,96025.94
2022-08-21T11:19:06.024Z,96028.69
2022-08-21T11:21:45.611Z,96024.22
2022-08-21T11:24:31.518Z,96027.47
2022-08-21T11:27:02.345Z,96028.16
2022-08-21T11:29:36.717Z,96028.25
2022-08-21T11:32:38.610Z,96016.84
2022-08-21T11:35:07.060Z,96018.91
2022-08-21T11:38:35.496Z,96020.47
2022-08-21T11:41:22.309Z,96013.94
2022-08-21T11:44:14.101Z,96018.78
2022-08-21T11:46:47.161Z,96022.09
2022-08-21T11:49:41.416Z,96030.19
2022-08-21T11:52:14.395Z,96027.38
2022-08-21T11:54:47.419Z,96029.72
2022-08-21T11:57:21.334Z,96027.16
2022-08-21T11:59:58.193Z,96026.84
2022-08-21T12:02:32.437Z,96023.06
2022-08-21T12:05:08.688Z,96028.84
2022-08-21T12:08:04.503Z,96023.06
2022-08-21T12:10:35.766Z,96024.78
2022-08-21T12:13:40.389Z,96006.59
2022-08-21T12:16:15.673Z,96013.34
2022-08-21T12:18:44.185Z,96017.97
2022-08-21T12:21:28.824Z,96011.31
2022-08-21T12:24:18.896Z,95992.31
2022-08-21T12:26:55.715Z,96017.13
2022-08-21T12:29:35.164Z,96008.72
2022-08-21T12:32:24.981Z,96009.13
2022-08-21T12:35:01.901Z,96002.22
2022-08-21T12:37:39.842Z,95997.81
2022-08-21T12:40:22.668Z,95997.47
2022-08-21T12:43:00.589Z,95988.97
2022-08-21T12:45:43.061Z,95983.97
2022-08-21T12:48:14.119Z,95986.97
2022-08-21T12:50:54.969Z,95983.97
2022-08-21T12:53:30.341Z,95983.97
2022-08-21T12:56:02.733Z,95981.09
2022-08-21T12:58:31.113Z,95976.03
2022-08-21T13:01:14.271Z,95983.59
2022-08-21T13:03:42.768Z,95986.41
2022-08-21T13:06:17.247Z,95976.03
2022-08-21T13:08:47.799Z,95980.22
2022-08-21T13:11:32.448Z,95980.09
2022-08-21T13:14:04.679Z,95979.34
2022-08-21T13:16:32.971Z,95986.16
2022-08-21T13:19:08.113Z,95978.38
2022-08-21T13:21:42.591Z,95979.81
2022-08-21T13:27:27.777Z,95961.38
2022-08-21T13:30:05.645Z,95966.44
2022-08-21T13:32:38.615Z,95953.22
2022-08-21T13:35:11.546Z,95964.31
2022-08-21T13:37:41.648Z,95961.53
2022-08-21T13:40:15.778Z,95949.84
2022-08-21T13:42:44.461Z,95955.88
2022-08-21T13:45:23.793Z,95957.72
2022-08-21T13:47:53.345Z,95958.41
2022-08-21T13:50:23.954Z,95950.41
2022-08-21T13:52:59.217Z,95946.81
2022-08-21T13:55:34.414Z,95949.41
2022-08-21T13:58:03.859Z,95950.69
2022-08-21T14:00:35.662Z,95942.91
2022-08-21T14:03:10.993Z,95946.59
2022-08-21T14:05:47.039Z,95944.34
2022-08-21T14:08:16.569Z,95939.84
2022-08-21T14:10:55.964Z,95931.66
2022-08-21T14:13:34.147Z,95935.25
2022-08-21T14:16:14.639Z,95938.97
2022-08-21T14:19:09.674Z,95929.03
2022-08-21T14:21:44.706Z,95940.59
2022-08-21T14:24:25.567Z,95937.66
2022-08-21T14:26:56.870Z,95936.59
2022-08-21T14:29:27.265Z,95943.88
2022-08-21T14:32:16.553Z,95930.09
2022-08-21T14:34:54.623Z,95929.69
2022-08-21T14:37:24.092Z,95926.16
2022-08-21T14:39:51.157Z,95920.66
2022-08-21T14:42:18.286Z,95919.09
2022-08-21T14:44:45.397Z,95929.91
2022-08-21T14:47:12.621Z,95926.03
2022-08-21T14:49:40.701Z,95915.06
2022-08-21T14:52:07.815Z,95923.47
2022-08-21T14:54:35.252Z,95923.81
2022-08-21T14:57:06.947Z,95925.47
2022-08-21T14:59:35.509Z,95935.03
2022-08-21T15:02:05.092Z,95933.22
2022-08-21T15:04:34.067Z,95933.75
2022-08-21T15:07:01.474Z,95925.28
2022-08-21T15:09:28.952Z,95925.28
2022-08-21T15:11:59.480Z,95922.00
2022-08-21T15:14:29.586Z,95926.75
2022-08-21T15:16:57.193Z,95928.34
2022-08-21T15:19:24.364Z,95921.47
2022-08-21T15:21:51.525Z,95924.25
2022-08-21T15:24:18.666Z,95925.22
2022-08-21T15:26:46.258Z,95916.38
2022-08-21T15:29:13.487Z,95903.06
2022-08-21T15:31:56.623Z,95919.94
2022-08-21T15:34:27.332Z,95920.66
2022-08-21T15:36:57.056Z,95922.31
2022-08-21T15:39:31.076Z,95917.84
2022-08-21T15:41:59.696Z,95907.91
2022-08-21T15:44:30.133Z,95911.88
2022-08-21T15:46:57.878Z,95896.75
2022-08-21T15:49:25.134Z,95892.59
2022-08-21T15:51:52.451Z,95892.00
2022-08-21T15:54:19.593Z,95891.69
2022-08-21T15:56:51.444Z,95897.91
2022-08-21T15:59:22.886Z,95898.28
2022-08-21T16:01:51.576Z,95899.25
2022-08-21T16:04:28.110Z,95893.22
2022-08-21T16:06:59.972Z,95881.06
2022-08-21T16:09:31.154Z,95882.34
2022-08-21T16:12:01.111Z,95881.34
2022-08-21T16:14:30.804Z,95881.00
2022-08-21T16:16:58.598Z,95884.91
2022-08-21T16:19:28.689Z,95883.81
2022-08-21T16:21:55.817Z,95881.38
2022-08-21T16:24:23.057Z,95876.44
2022-08-21T16:26:57.963Z,95872.72
2022-08-21T16:29:30.305Z,95876.38
2022-08-21T16:31:57.418Z,95876.41
2022-08-21T16:34:24.934Z,95867.66
2022-08-21T16:36:52.122Z,95868.50
2022-08-21T16:39:19.415Z,95871.28
2022-08-21T16:41:49.575Z,95869.31
2022-08-21T16:44:17.475Z,95874.25
2022-08-21T16:46:44.992Z,95857.41
2022-08-21T16:49:12.133Z,95857.91
2022-08-21T16:51:39.302Z,95860.09
2022-08-21T16:54:06.731Z,95866.44
2022-08-21T16:56:35.189Z,95855.91
2022-08-21T16:59:05.204Z,95863.53
2022-08-21T17:01:34.173Z,95848.78
2022-08-21T17:04:01.482Z,95858.28
2022-08-21T17:06:30.298Z,95852.25
2022-08-21T17:08:58.825Z,95860.63
2022-08-21T17:11:37.162Z,95859.31
2022-08-21T17:14:14.868Z,95861.81
2022-08-21T17:16:45.945Z,95858.22
2022-08-21T17:19:13.638Z,95861.69
2022-08-21T17:21:41.234Z,95866.03
2022-08-21T17:24:08.603Z,95855.91
2022-08-21T17:26:37.127Z,95864.81
2022-08-21T17:29:09.633Z,95853.91
2022-08-21T17:31:38.804Z,95864.41
2022-08-21T17:34:06.759Z,95864.41
2022-08-21T17:36:35.091Z,95874.72
2022-08-21T17:39:04.357Z,95868.59
2022-08-21T17:41:31.636Z,95869.47
2022-08-21T17:44:03.527Z,95879.75
2022-08-21T17:46:31.070Z,95872.06
2022-08-21T17:48:58.518Z,95872.66
2022-08-21T17:51:28.949Z,95873.06
2022-08-21T17:53:56.225Z,95871.78
2022-08-21T17:56:29.371Z,95867.06
2022-08-21T17:58:56.959Z,95873.72
2022-08-21T18:01:27.579Z,95879.84
2022-08-21T18:03:54.717Z,95872.88
2022-08-21T18:06:21.961Z,95877.56
2022-08-21T18:08:49.087Z,95883.41
2022-08-21T18:11:23.718Z,95881.28
2022-08-21T18:13:53.829Z,95880.25
2022-08-21T18:16:21.935Z,95880.81
2022-08-21T18:18:51.368Z,95881.25
2022-08-21T18:21:18.688Z,95883.91
2022-08-21T18:23:45.949Z,95879.69
2022-08-21T18:26:16.093Z,95880.16
2022-08-21T18:28:44.177Z,95879.72
2022-08-21T18:31:13.033Z,95887.19
2022-08-21T18:33:43.610Z,95884.59
2022-08-21T18:36:24.423Z,95885.16
2022-08-21T18:38:52.751Z,95882.97
2022-08-21T18:41:19.900Z,95881.19
2022-08-21T18:43:47.022Z,95887.91
2022-08-21T18:46:14.692Z,95890.59
2022-08-21T18:48:42.598Z,95887.69
2022-08-21T18:51:11.295Z,95895.63
2022-08-21T18:53:38.705Z,95890.56
2022-08-21T18:56:08.235Z,95892.66
2022-08-21T18:58:44.299Z,95892.91
2022-08-21T19:01:12.290Z,95896.59
2022-08-21T19:03:40.118Z,95896.53
2022-08-21T19:06:11.800Z,95897.31
2022-08-21T19:08:39.139Z,95897.00
2022-08-21T19:11:07.006Z,95892.44
2022-08-21T19:13:35.653Z,95891.44
2022-08-21T19:16:05.210Z,95888.97
2022-08-21T19:18:40.254Z,95883.16
2022-08-21T19:21:08.252Z,95896.81
2022-08-21T19:23:35.626Z,95885.59
2022-08-21T19:26:07.311Z,95894.84
2022-08-21T19:28:41.811Z,95896.94
2022-08-21T19:31:19.744Z,95896.59
2022-08-21T19:34:01.619Z,95890.41
2022-08-21T19:36:30.267Z,95887.59
2022-08-21T19:38:57.417Z,95897.28
2022-08-21T19:41:28.099Z,95890.72
2022-08-21T19:43:58.053Z,95899.53
2022-08-21T19:46:32.525Z,95895.47
2022-08-21T19:49:03.612Z,95904.78
2022-08-21T19:51:34.673Z,95910.94
2022-08-21T19:54:03.011Z,95913.19
2022-08-21T19:56:34.256Z,95918.78
2022-08-21T19:59:04.938Z,95918.78
2022-08-21T20:01:34.770Z,95921.69
2022-08-21T20:04:02.007Z,95919.03
2022-08-21T20:06:29.263Z,95925.25
2022-08-21T20:08:59.524Z,95925.34
2022-08-21T20:11:31.502Z,95925.00
2022-08-21T20:13:59.643Z,95947.00
2022-08-21T20:16:28.826Z,95937.13
2022-08-21T20:18:56.347Z,95949.53
2022-08-21T20:21:23.503Z,95950.84
2022-08-21T20:23:50.801Z,95947.41
2022-08-21T20:26:19.261Z,95944.94
2022-08-21T20:28:50.491Z,95943.72
2022-08-21T20:31:20.483Z,95953.03
2022-08-21T20:33:49.591Z,95956.59
2022-08-21T20:36:21.260Z,95950.22
2022-08-21T20:38:51.681Z,95947.44
2022-08-21T20:41:30.546Z,95930.63
2022-08-21T20:44:00.394Z,95950.84
2022-08-21T20:46:29.702Z,95956.09
2022-08-21T20:48:57.635Z,95955.94
2022-08-21T20:51:31.617Z,95957.03
2022-08-21T20:54:23.933Z,95956.75
2022-08-21T20:57:03.605Z,95953.63
2022-08-21T20:59:43.355Z,95954.56
2022-08-21T21:02:55.769Z,95951.09
2022-08-21T21:05:29.910Z,95949.72
2022-08-21T21:08:03.162Z,95956.41
2022-08-21T21:10:33.347Z,95953.91
2022-08-21T21:13:08.655Z,95946.16
2022-08-21T21:15:36.662Z,95954.38
2022-08-21T21:18:13.255Z,95943.81
2022-08-21T21:20:48.620Z,95949.22
2022-08-21T21:23:30.252Z,95943.59
2022-08-21T21:26:14.498Z,95949.50
2022-08-21T21:28:51.955Z,95947.63
2022-08-21T21:31:19.620Z,95939.53
2022-08-21T21:33:47.833Z,95943.69
2022-08-21T21:36:21.152Z,95944.13
2022-08-21T21:38:56.091Z,95943.38
2022-08-21T21:41:30.599Z,95951.78
2022-08-21T21:44:06.945Z,95936.13
2022-08-21T21:46:48.658Z,95932.78
2022-08-21T21:49:58.201Z,95935.13
2022-08-21T21:52:40.689Z,95928.91
2022-08-21T21:55:13.826Z,95931.25
2022-08-21T21:58:29.401Z,95937.88
2022-08-21T22:01:12.007Z,95938.00
2022-08-21T22:04:03.834Z,95934.22
2022-08-21T22:06:58.923Z,95944.16
2022-08-21T22:09:59.062Z,95939.63
2022-08-21T22:12:49.578Z,95942.06
2022-08-21T22:15:28.668Z,95952.78
2022-08-21T22:18:07.564Z,95947.13
2022-08-21T22:20:39.651Z,95944.72
2022-08-21T22:23:12.747Z,95944.88
2022-08-21T22:25:47.225Z,95958.09
2022-08-21T22:31:21.112Z,95965.13
2022-08-21T22:34:21.262Z,95963.31
2022-08-21T22:36:59.494Z,95959.81
2022-08-21T22:39:38.623Z,95952.91
2022-08-21T22:42:25.599Z,95957.34
2022-08-21T22:44:54.503Z,95950.97
2022-08-21T22:47:39.496Z,95957.09
2022-08-21T22:50:26.940Z,95962.28
2022-08-21T22:52:59.973Z,95954.38
2022-08-21T22:55:45.810Z,95957.84
2022-08-21T22:58:33.105Z,95956.31
2022-08-21T23:01:02.985Z,95948.91
2022-08-21T23:03:42.974Z,95948.72
2022-08-21T23:06:29.914Z,95943.91
2022-08-21T23:09:00.369Z,95952.75
2022-08-21T23:11:50.998Z,95947.06
2022-08-21T23:14:18.784Z,95953.59
2022-08-21T23:17:18.211Z,95952.03
2022-08-21T23:19:48.149Z,95951.72
2022-08-21T23:22:30.154Z,95950.47
2022-08-21T23:25:12.408Z,95954.56
2022-08-21T23:27:51.511Z,95951.13
2022-08-21T23:30:23.535Z,95950.81
2022-08-21T23:33:13.371Z,95952.50
2022-08-21T23:36:33.270Z,95950.00
2022-08-21T23:39:10.044Z,95948.09
2022-08-21T23:41:58.575Z,95939.97
2022-08-21T23:44:41.657Z,95947.09
2022-08-21T23:47:34.747Z,95937.53
2022-08-21T23:50:25.936Z,95938.97
2022-08-21T23:53:08.921Z,95938.19
2022-08-21T23:56:07.589Z,95928.66
2022-08-21T23:58:59.683Z,95928.31
